Irati, Brazil
Current Conditions -  °F | °C
As of 1:00 PM on Wednesday 26 Nov 2014 (Local Time) from SBCH Reporting Station
Scattered Clouds Scattered Clouds  
Wind Chill: 77°   Ceiling: Unl
Heat Index: 79°   Visibility: 6mi
Dew Point: 66°   Wind: 7mph
Humidity: 69%   Direction: 270°W
Pressure: 29.88"   Gusts: NA
Location:  26.66°S, 52.89°W
Report Text: SBCH 261500Z 27006KT 9999 SCT018 25/19 Q1012
Loading
Personal Weather Stations






























Interactive Weather Map New forecast layout! Learn more

10-Day Weather Forecast

Advertisements
Track Severe Weather on mobile